Time,TemperatureF,DewpointF,PressureIn,WindDirection,WindDirectionDegrees,WindSpeedMPH,WindSpeedGustMPH,Humidity,HourlyPrecipIn,Conditions,Clouds,dailyrainin,SoftwareType,DateUTC
2013-03-17 00:03:00,34.0,30.0,29.90,North,349,0.0,0.0,86,0.00,,,0.01,,2013-03-17 04:03:00,
2013-03-17 00:13:00,34.0,30.0,29.90,North,349,0.0,0.0,86,0.00,,,0.01,,2013-03-17 04:13:00,
2013-03-17 00:23:00,34.0,30.0,29.90,North,349,0.0,0.0,86,0.00,,,0.01,,2013-03-17 04:23:00,
2013-03-17 00:32:00,34.0,30.0,29.91,North,349,0.0,0.0,85,0.00,,,0.01,,2013-03-17 04:32:00,
2013-03-17 00:43:00,34.0,30.0,29.91,North,349,0.0,0.0,85,0.00,,,0.01,,2013-03-17 04:43:00,
2013-03-17 00:53:00,34.0,30.0,29.91,North,349,0.0,0.0,85,0.00,,,0.01,,2013-03-17 04:53:00,
2013-03-17 01:03:00,34.0,30.0,29.91,North,349,0.0,0.0,85,0.00,,,0.01,,2013-03-17 05:03:00,
2013-03-17 01:12:00,34.0,30.0,29.91,North,349,0.0,0.0,85,0.00,,,0.01,,2013-03-17 05:12:00,
2013-03-17 01:22:00,33.0,29.0,29.92,North,349,0.0,0.0,85,0.00,,,0.01,,2013-03-17 05:22:00,
2013-03-17 01:32:00,33.0,29.0,29.91,North,349,0.0,0.0,86,0.00,,,0.01,,2013-03-17 05:32:00,
2013-03-17 01:42:00,33.0,29.0,29.91,North,349,0.0,0.0,86,0.00,,,0.01,,2013-03-17 05:42:00,
2013-03-17 01:52:00,33.0,29.0,29.91,North,349,0.0,0.0,86,0.00,,,0.01,,2013-03-17 05:52:00,
2013-03-17 02:02:00,32.0,29.0,29.91,North,349,0.0,0.0,89,0.00,,,0.01,,2013-03-17 06:02:00,
2013-03-17 02:12:00,32.0,29.0,29.91,North,349,0.0,0.0,89,0.00,,,0.01,,2013-03-17 06:12:00,
2013-03-17 02:22:00,32.0,29.0,29.92,North,349,0.0,0.0,89,0.00,,,0.01,,2013-03-17 06:22:00,
2013-03-17 02:32:00,31.0,28.0,29.92,North,349,0.0,0.0,89,0.00,,,0.01,,2013-03-17 06:32:00,
2013-03-17 02:42:00,31.0,28.0,29.92,North,349,0.0,0.0,89,0.00,,,0.01,,2013-03-17 06:42:00,
2013-03-17 02:52:00,31.0,28.0,29.92,North,349,0.0,0.0,89,0.00,,,0.01,,2013-03-17 06:52:00,
2013-03-17 03:02:00,31.0,29.0,29.93,North,349,0.0,0.0,91,0.00,,,0.01,,2013-03-17 07:02:00,
2013-03-17 03:12:00,31.0,29.0,29.93,North,349,0.0,0.0,91,0.00,,,0.01,,2013-03-17 07:12:00,
2013-03-17 03:22:00,31.0,29.0,29.93,North,349,0.0,0.0,91,0.00,,,0.01,,2013-03-17 07:22:00,
2013-03-17 03:32:00,31.0,29.0,29.93,North,349,0.0,0.0,93,0.00,,,0.01,,2013-03-17 07:32:00,
2013-03-17 03:42:00,31.0,29.0,29.93,North,349,0.0,0.0,93,0.00,,,0.01,,2013-03-17 07:42:00,
2013-03-17 03:52:00,30.0,28.0,29.93,North,349,0.0,0.0,94,0.00,,,0.01,,2013-03-17 07:52:00,
2013-03-17 04:03:00,31.0,29.0,29.94,North,349,0.0,0.0,94,0.00,,,0.01,,2013-03-17 08:03:00,
2013-03-17 04:13:00,31.0,29.0,29.95,North,349,0.0,0.0,93,0.00,,,0.01,,2013-03-17 08:13:00,
2013-03-17 04:22:00,31.0,29.0,29.95,North,349,0.0,0.0,93,0.00,,,0.01,,2013-03-17 08:22:00,
2013-03-17 04:32:00,31.0,28.0,29.95,North,349,0.0,0.0,90,0.00,,,0.01,,2013-03-17 08:32:00,
2013-03-17 04:42:00,31.0,28.0,29.95,North,349,0.0,0.0,90,0.00,,,0.01,,2013-03-17 08:42:00,
2013-03-17 04:52:00,31.0,28.0,29.96,North,349,0.0,0.0,89,0.00,,,0.01,,2013-03-17 08:52:00,
2013-03-17 05:03:00,31.0,27.0,29.96,North,349,0.0,0.0,85,0.00,,,0.01,,2013-03-17 09:03:00,
2013-03-17 05:12:00,31.0,27.0,29.96,North,349,0.0,0.0,85,0.00,,,0.01,,2013-03-17 09:12:00,
2013-03-17 05:22:00,31.0,26.0,29.97,North,349,0.0,0.0,81,0.00,,,0.01,,2013-03-17 09:22:00,
2013-03-17 05:32:00,31.0,25.0,29.98,North,349,0.0,0.0,79,0.00,,,0.01,,2013-03-17 09:32:00,
2013-03-17 05:43:00,31.0,25.0,29.98,North,349,0.0,0.0,79,0.00,,,0.01,,2013-03-17 09:43:00,
2013-03-17 05:53:00,31.0,25.0,29.98,North,349,0.0,0.0,78,0.00,,,0.01,,2013-03-17 09:53:00,
2013-03-17 06:03:00,31.0,24.0,29.99,North,349,0.0,0.0,76,0.00,,,0.01,,2013-03-17 10:03:00,
2013-03-17 06:13:00,31.0,24.0,29.99,North,349,0.0,0.0,76,0.00,,,0.01,,2013-03-17 10:13:00,
2013-03-17 06:23:00,31.0,24.0,29.99,North,349,0.0,0.0,74,0.00,,,0.01,,2013-03-17 10:23:00,
2013-03-17 06:33:00,31.0,23.0,30.00,North,349,0.0,0.0,71,0.00,,,0.01,,2013-03-17 10:33:00,
2013-03-17 06:42:00,31.0,23.0,30.00,North,349,0.0,0.0,71,0.00,,,0.01,,2013-03-17 10:42:00,
2013-03-17 06:52:00,31.0,22.0,30.01,North,349,0.0,0.0,69,0.00,,,0.01,,2013-03-17 10:52:00,
2013-03-17 07:02:00,30.0,20.0,30.01,North,349,0.0,0.0,66,0.00,,,0.01,,2013-03-17 11:02:00,
2013-03-17 07:12:00,30.0,20.0,30.01,North,349,0.0,0.0,66,0.00,,,0.01,,2013-03-17 11:12:00,
2013-03-17 07:22:00,30.0,20.0,30.02,North,349,0.0,0.0,65,0.00,,,0.01,,2013-03-17 11:22:00,
2013-03-17 07:32:00,30.0,19.0,30.05,North,349,0.0,0.0,63,0.00,,,0.01,,2013-03-17 11:32:00,
2013-03-17 07:42:00,30.0,19.0,30.05,North,349,0.0,0.0,63,0.00,,,0.01,,2013-03-17 11:42:00,
2013-03-17 07:52:00,29.0,18.0,30.05,North,349,0.0,0.0,62,0.00,,,0.01,,2013-03-17 11:52:00,
2013-03-17 08:02:00,29.0,17.0,30.07,North,349,0.0,0.0,61,0.00,,,0.01,,2013-03-17 12:02:00,
2013-03-17 08:12:00,29.0,17.0,30.07,North,349,0.0,0.0,61,0.00,,,0.01,,2013-03-17 12:12:00,
2013-03-17 08:22:00,29.0,17.0,30.07,North,349,0.0,0.0,61,0.00,,,0.01,,2013-03-17 12:22:00,
2013-03-17 08:33:00,30.0,18.0,30.07,North,349,0.0,0.0,60,0.01,,,0.02,,2013-03-17 12:33:00,
2013-03-17 08:43:00,30.0,18.0,30.07,North,349,0.0,0.0,60,0.01,,,0.02,,2013-03-17 12:43:00,
2013-03-17 08:52:00,30.0,17.0,30.07,North,349,0.0,0.0,59,0.01,,,0.02,,2013-03-17 12:52:00,
2013-03-17 09:02:00,31.0,18.0,30.08,North,349,0.0,0.0,58,0.01,,,0.02,,2013-03-17 13:02:00,
2013-03-17 09:12:00,31.0,18.0,30.08,North,349,0.0,0.0,58,0.01,,,0.02,,2013-03-17 13:12:00,
2013-03-17 09:22:00,31.0,19.0,30.10,North,349,0.0,0.0,60,0.01,,,0.02,,2013-03-17 13:22:00,
2013-03-17 09:32:00,31.0,18.0,30.11,North,349,0.0,0.0,59,0.00,,,0.02,,2013-03-17 13:32:00,
2013-03-17 09:42:00,31.0,18.0,30.11,North,349,0.0,0.0,59,0.00,,,0.02,,2013-03-17 13:42:00,
2013-03-17 09:52:00,32.0,19.0,30.11,North,349,0.0,0.0,57,0.00,,,0.02,,2013-03-17 13:52:00,
2013-03-17 10:02:00,32.0,18.0,30.11,North,349,0.0,0.0,55,0.00,,,0.02,,2013-03-17 14:02:00,
2013-03-17 10:12:00,32.0,18.0,30.11,North,349,0.0,0.0,55,0.00,,,0.02,,2013-03-17 14:12:00,
2013-03-17 10:22:00,32.0,18.0,30.11,North,349,0.0,0.0,56,0.00,,,0.02,,2013-03-17 14:22:00,
2013-03-17 10:32:00,33.0,18.0,30.11,North,349,0.0,0.0,53,0.02,,,0.04,,2013-03-17 14:32:00,
2013-03-17 10:42:00,33.0,18.0,30.11,North,349,0.0,0.0,53,0.02,,,0.04,,2013-03-17 14:42:00,
2013-03-17 10:52:00,33.0,18.0,30.12,North,349,0.0,0.0,53,0.02,,,0.04,,2013-03-17 14:52:00,
2013-03-17 11:02:00,33.0,16.0,30.13,North,349,0.0,0.0,50,0.02,,,0.04,,2013-03-17 15:02:00,
2013-03-17 11:12:00,33.0,16.0,30.13,North,349,0.0,0.0,50,0.02,,,0.04,,2013-03-17 15:12:00,
2013-03-17 11:23:00,33.0,16.0,30.13,North,349,0.0,0.0,49,0.02,,,0.04,,2013-03-17 15:23:00,
2013-03-17 11:33:00,33.0,15.0,30.13,North,349,0.0,0.0,48,0.00,,,0.04,,2013-03-17 15:33:00,
2013-03-17 11:43:00,33.0,15.0,30.13,North,349,0.0,0.0,48,0.00,,,0.04,,2013-03-17 15:43:00,
2013-03-17 11:52:00,33.0,14.0,30.12,North,349,0.0,0.0,45,0.00,,,0.04,,2013-03-17 15:52:00,
2013-03-17 12:03:00,33.0,13.0,30.12,North,349,0.0,0.0,44,0.00,,,0.04,,2013-03-17 16:03:00,
2013-03-17 12:12:00,33.0,13.0,30.12,North,349,0.0,0.0,44,0.00,,,0.04,,2013-03-17 16:12:00,
2013-03-17 12:23:00,34.0,15.0,30.11,North,349,0.0,0.0,45,0.00,,,0.04,,2013-03-17 16:23:00,
2013-03-17 12:33:00,34.0,13.0,30.11,North,349,0.0,0.0,42,0.00,,,0.04,,2013-03-17 16:33:00,
2013-03-17 12:43:00,34.0,13.0,30.11,North,349,0.0,0.0,42,0.00,,,0.04,,2013-03-17 16:43:00,
2013-03-17 12:52:00,34.0,12.0,30.12,North,349,0.0,0.0,40,0.00,,,0.04,,2013-03-17 16:52:00,
2013-03-17 13:02:00,35.0,15.0,30.12,North,349,0.0,0.0,43,0.00,,,0.04,,2013-03-17 17:02:00,
2013-03-17 13:12:00,35.0,15.0,30.12,North,349,0.0,0.0,43,0.00,,,0.04,,2013-03-17 17:12:00,
2013-03-17 13:22:00,34.0,13.0,30.12,North,349,0.0,0.0,42,0.00,,,0.04,,2013-03-17 17:22:00,
2013-03-17 13:33:00,34.0,13.0,30.13,North,349,0.0,0.0,42,0.00,,,0.04,,2013-03-17 17:33:00,
2013-03-17 13:42:00,34.0,13.0,30.13,North,349,0.0,0.0,42,0.00,,,0.04,,2013-03-17 17:42:00,
2013-03-17 13:52:00,35.0,14.0,30.12,North,349,0.0,0.0,42,0.00,,,0.04,,2013-03-17 17:52:00,
2013-03-17 14:02:00,35.0,14.0,30.13,North,349,0.0,0.0,42,0.00,,,0.04,,2013-03-17 18:02:00,
2013-03-17 14:12:00,35.0,14.0,30.13,North,349,0.0,0.0,42,0.00,,,0.04,,2013-03-17 18:12:00,
2013-03-17 14:22:00,35.0,14.0,30.13,North,349,0.0,0.0,41,0.00,,,0.04,,2013-03-17 18:22:00,
2013-03-17 14:32:00,35.0,14.0,30.13,North,349,0.0,0.0,42,0.00,,,0.04,,2013-03-17 18:32:00,
2013-03-17 14:42:00,35.0,14.0,30.13,North,349,0.0,0.0,42,0.00,,,0.04,,2013-03-17 18:42:00,
2013-03-17 14:52:00,36.0,15.0,30.13,North,349,0.0,0.0,41,0.00,,,0.04,,2013-03-17 18:52:00,
2013-03-17 15:02:00,36.0,14.0,30.13,North,349,0.0,0.0,40,0.00,,,0.04,,2013-03-17 19:02:00,
2013-03-17 15:12:00,36.0,14.0,30.13,North,349,0.0,0.0,40,0.00,,,0.04,,2013-03-17 19:12:00,
2013-03-17 15:22:00,36.0,14.0,30.13,North,349,0.0,0.0,40,0.00,,,0.03,,2013-03-17 19:22:00,
2013-03-17 15:33:00,36.0,14.0,30.12,North,349,0.0,0.0,40,0.00,,,0.03,,2013-03-17 19:33:00,
2013-03-17 15:42:00,36.0,14.0,30.12,North,349,0.0,0.0,40,0.00,,,0.03,,2013-03-17 19:42:00,
2013-03-17 15:53:00,37.0,15.0,30.12,North,349,0.0,0.0,40,0.00,,,0.03,,2013-03-17 19:53:00,
2013-03-17 16:02:00,37.0,13.0,30.13,North,349,0.0,0.0,37,0.00,,,0.03,,2013-03-17 20:02:00,
2013-03-17 16:12:00,37.0,13.0,30.13,North,349,0.0,0.0,37,0.00,,,0.03,,2013-03-17 20:12:00,
2013-03-17 16:22:00,38.0,13.0,30.13,North,349,0.0,0.0,36,0.00,,,0.03,,2013-03-17 20:22:00,
2013-03-17 16:33:00,38.0,12.0,30.13,North,349,0.0,0.0,34,0.00,,,0.03,,2013-03-17 20:33:00,
2013-03-17 16:42:00,38.0,12.0,30.13,North,349,0.0,0.0,34,0.00,,,0.03,,2013-03-17 20:42:00,
2013-03-17 16:52:00,38.0,11.0,30.13,North,349,0.0,0.0,33,0.00,,,0.03,,2013-03-17 20:52:00,
2013-03-17 17:03:00,38.0,10.0,30.13,North,349,0.0,0.0,31,0.00,,,0.03,,2013-03-17 21:03:00,
2013-03-17 17:12:00,38.0,10.0,30.13,North,349,0.0,0.0,31,0.00,,,0.03,,2013-03-17 21:12:00,
2013-03-17 17:22:00,38.0,9.0,30.13,North,349,0.0,0.0,29,0.00,,,0.03,,2013-03-17 21:22:00,
2013-03-17 17:33:00,38.0,9.0,30.14,North,349,0.0,0.0,29,0.00,,,0.03,,2013-03-17 21:33:00,
2013-03-17 17:43:00,38.0,9.0,30.14,North,349,0.0,0.0,29,0.00,,,0.03,,2013-03-17 21:43:00,
2013-03-17 17:52:00,38.0,9.0,30.14,North,349,0.0,0.0,29,0.00,,,0.03,,2013-03-17 21:52:00,
2013-03-17 18:03:00,38.0,9.0,30.15,North,349,0.0,0.0,29,0.00,,,0.03,,2013-03-17 22:03:00,
2013-03-17 18:12:00,38.0,9.0,30.15,North,349,0.0,0.0,29,0.00,,,0.03,,2013-03-17 22:12:00,
2013-03-17 18:23:00,38.0,9.0,30.15,North,349,0.0,0.0,29,0.00,,,0.03,,2013-03-17 22:23:00,
2013-03-17 18:33:00,37.0,8.0,30.16,North,349,0.0,0.0,29,0.00,,,0.03,,2013-03-17 22:33:00,
2013-03-17 18:42:00,37.0,8.0,30.16,North,349,0.0,0.0,29,0.00,,,0.03,,2013-03-17 22:42:00,
2013-03-17 18:52:00,37.0,8.0,30.17,North,349,0.0,0.0,29,0.00,,,0.03,,2013-03-17 22:52:00,
2013-03-17 19:03:00,37.0,8.0,30.18,North,349,0.0,0.0,29,0.00,,,0.03,,2013-03-17 23:03:00,
2013-03-17 19:12:00,37.0,8.0,30.18,North,349,0.0,0.0,29,0.00,,,0.03,,2013-03-17 23:12:00,
2013-03-17 19:22:00,37.0,8.0,30.19,North,349,0.0,0.0,30,0.00,,,0.03,,2013-03-17 23:22:00,
2013-03-17 19:33:00,37.0,9.0,30.19,North,349,0.0,0.0,31,0.00,,,0.03,,2013-03-17 23:33:00,
2013-03-17 19:42:00,37.0,9.0,30.19,North,349,0.0,0.0,31,0.00,,,0.03,,2013-03-17 23:42:00,
2013-03-17 19:52:00,37.0,8.0,30.20,North,349,0.0,0.0,30,0.00,,,0.03,,2013-03-17 23:52:00,
2013-03-17 20:03:00,37.0,8.0,30.21,North,349,0.0,0.0,30,0.00,,,0.03,,2013-03-18 00:03:00,
2013-03-17 20:12:00,37.0,8.0,30.21,North,349,0.0,0.0,30,0.00,,,0.03,,2013-03-18 00:12:00,
2013-03-17 20:22:00,36.0,8.0,30.22,North,349,0.0,0.0,31,0.00,,,0.03,,2013-03-18 00:22:00,
2013-03-17 20:33:00,36.0,9.0,30.22,North,349,0.0,0.0,32,0.00,,,0.03,,2013-03-18 00:33:00,
2013-03-17 20:42:00,36.0,9.0,30.22,North,349,0.0,0.0,32,0.00,,,0.03,,2013-03-18 00:42:00,
2013-03-17 20:52:00,36.0,9.0,30.24,North,349,0.0,0.0,32,0.00,,,0.03,,2013-03-18 00:52:00,
2013-03-17 21:02:00,35.0,8.0,30.24,North,349,0.0,0.0,32,0.00,,,0.03,,2013-03-18 01:02:00,
2013-03-17 21:12:00,35.0,8.0,30.24,North,349,0.0,0.0,32,0.00,,,0.03,,2013-03-18 01:12:00,
2013-03-17 21:22:00,35.0,8.0,30.25,North,349,0.0,0.0,32,0.00,,,0.03,,2013-03-18 01:22:00,
2013-03-17 21:32:00,35.0,7.0,30.25,North,349,0.0,0.0,31,0.00,,,0.03,,2013-03-18 01:32:00,
2013-03-17 21:42:00,35.0,7.0,30.25,North,349,0.0,0.0,31,0.00,,,0.03,,2013-03-18 01:42:00,
2013-03-17 21:52:00,34.0,9.0,30.26,North,349,0.0,0.0,34,0.00,,,0.03,,2013-03-18 01:52:00,
2013-03-17 22:02:00,34.0,9.0,30.27,North,349,0.0,0.0,35,0.00,,,0.03,,2013-03-18 02:02:00,
2013-03-17 22:12:00,34.0,9.0,30.27,North,349,0.0,0.0,35,0.00,,,0.03,,2013-03-18 02:12:00,
2013-03-17 22:22:00,34.0,9.0,30.27,North,349,0.0,0.0,34,0.00,,,0.03,,2013-03-18 02:22:00,
2013-03-17 22:32:00,33.0,10.0,30.29,North,349,0.0,0.0,38,0.00,,,0.03,,2013-03-18 02:32:00,
2013-03-17 22:42:00,33.0,10.0,30.29,North,349,0.0,0.0,38,0.00,,,0.03,,2013-03-18 02:42:00,
2013-03-17 22:52:00,33.0,7.0,30.29,North,349,0.0,0.0,33,0.00,,,0.03,,2013-03-18 02:52:00,
2013-03-17 23:03:00,33.0,8.0,30.30,North,349,0.0,0.0,34,0.00,,,0.03,,2013-03-18 03:03:00,
2013-03-17 23:11:00,33.0,8.0,30.30,North,349,0.0,0.0,34,0.00,,,0.03,,2013-03-18 03:11:00,
2013-03-17 23:22:00,32.0,7.0,30.30,North,349,0.0,0.0,35,0.00,,,0.03,,2013-03-18 03:22:00,
2013-03-17 23:33:00,32.0,6.0,30.30,North,349,0.0,0.0,32,0.00,,,0.03,,2013-03-18 03:33:00,
2013-03-17 23:42:00,32.0,6.0,30.30,North,349,0.0,0.0,32,0.00,,,0.03,,2013-03-18 03:42:00,
2013-03-17 23:53:00,32.0,7.0,30.30,North,349,0.0,0.0,35,0.00,,,0.03,,2013-03-18 03:53:00,